Liam Harris

Главный скаут - Bristol City
5 Дек 2027
Воскресенье
Продолжить

Характер

Адаптивность (1) Амбиции (12) Скандальность (13) Верность (18) Стрессоустойчивость (19) Профессионализм (8) Благородство (4) Темперамент (10)

Профиль

Стиль управления Демократичный
Лицензия Национальная A
Решительность 8
Управление людьми 5
Мотивация 4
Дисциплина 9
Удовлетворённость
100%
Усталость
0%
Должность Главный скаут
Зарплата 41.9K в нед.
Контракт 14.03.2029

Производительность

Поведение Хорошее
Эффективность тренировок
36%
Развитие игроков
25%
Профилактика травм
60%
Тактическая реализация
45%

Недавние события

Участвовал в селекционном совещании только что
Рекомендовал трансферную цель только что
Оценил игрока только что
Оценил игрока только что
Оценил игрока 7 дн. назад
Оценил игрока 7 дн. назад
Оценил игрока 7 дн. назад
Оценил игрока 7 дн. назад

Текущее наблюдение

124
Игрок Клуб Статус Способность Уверенность Наблюдений Последнее наблюдение Последний голос
Sunday Aniebet Enyimba Активный 94 / 108 40% 4 04.12.2027 -
Romelle Donovan Brentford Активный 129 / 119 40% 3 04.12.2027 -
Gabe Forsyth Colchester United Активный 112 / 104 40% 3 04.12.2027 -
Oskar Spiten-Nysæter Molde Активный 125 / 124 40% 6 03.12.2027 -
Emiliano Zambrano Gimnasia y Esgrima Активный 94 / 92 40% 1 03.12.2027 -
Giovanni Baroni Talleres Активный 107 / 135 40% 2 02.12.2027 -
Lucca São Paulo Активный 109 / 118 40% 1 02.12.2027 -
Ayyoub Bouaddi Luton Town Активный 141 / 142 40% 3 30.11.2027 -
Estêvão Exeter City Активный 144 / 163 40% 3 30.11.2027 -
Yang Min-Hyeok Stevenage Активный 130 / 129 40% 2 27.11.2027 -
Sidiki Chérif Coventry City Активный 135 / 142 40% 2 25.11.2027 -
Alex Verón Vélez Активный 112 / 131 40% 2 25.11.2027 -
Ajay Matthews Doncaster Rovers Активный 107 / 123 40% 2 25.11.2027 -
Ibrahim Fullah Charlton Athletic Активный 120 / 126 40% 3 24.11.2027 -
Yael Padilla Tijuana Активный 115 / 134 40% 1 24.11.2027 -
Dmitry Pestryakov Spartak Moscow Активный 125 / 107 40% 1 24.11.2027 -
Ruben Ramos LA Galaxy Активный 97 / 100 40% 1 23.11.2027 -
Luighi Palmeiras Активный 115 / 124 40% 1 23.11.2027 -
Olger Escobar CF Montreal Активный 95 / 87 40% 2 21.11.2027 -
Chris Rigg Sunderland Активный 135 / 140 40% 1 21.11.2027 -
Josh Nichols Oldham Athletic Активный 115 / 136 40% 1 21.11.2027 -
Sindre Walle Egeli Ipswich Town Активный 140 / 148 40% 2 20.11.2027 -
Luca Williams-Barnett Gillingham Активный 123 / 127 40% 1 20.11.2027 -
Honest Ahanor Atalanta Активный 136 / 154 40% 2 18.11.2027 -
Hassan Beja AFC Leopards Активный 92 / 76 40% 1 18.11.2027 -
Gideon Manaseh Ikorodu City Активный 96 / 79 40% 2 17.11.2027 -
Iván Barbona Colón Активный 99 / 98 40% 1 17.11.2027 -
Ryan McAidoo Accrington Stanley Активный 119 / 138 40% 3 15.11.2027 -
Andy Rojas New York Red Bulls Активный 102 / 117 40% 1 15.11.2027 -
Shea Lacey Hull City Активный 126 / 122 40% 2 14.11.2027 -
Ollie Scarles West Ham United Активный 132 / 130 40% 1 12.11.2027 -
Chaka Coulibaly Remo Stars Активный 91 / 81 40% 1 12.11.2027 -
Trey Nyoni Exeter City Активный 134 / 147 40% 1 12.11.2027 -
Joel Ezra Enyimba Активный 90 / 111 40% 4 09.11.2027 -
Jayden Danns AFC Wimbledon Активный 135 / 135 40% 3 09.11.2027 -
David Martínez Orlando City Активный 123 / 141 40% 1 08.11.2027 -
Ethan Williams Peterborough United Активный 117 / 126 40% 3 06.11.2027 -
Remy Rees-Dottin Huesca Активный 93 / 99 40% 1 06.11.2027 -
Mirsad Ali HNK Vukovar 1991 Активный 97 / 113 40% 1 01.11.2027 -
Ben Broggio Cambridge United Активный 103 / 122 40% 1 09.10.2027 -
Habeeb Ogunneye Pogon Активный 92 / 105 40% 1 08.10.2027 -
Musa Malik Ikorodu City Активный 86 / 111 40% 1 08.10.2027 -
Zane Albarus Istra 1961 Активный 98 / 91 40% 2 06.10.2027 -
Alexis Rodríguez Metropolitanos Активный 91 / 93 40% 2 06.10.2027 -
Ronan Kpakio Grimsby Town Активный 122 / 129 40% 2 04.10.2027 -
Theo Mawéné Espanyol Активный 98 / 91 40% 1 04.10.2027 -
Stuart Hawkins Seattle Sounders Активный 109 / 116 40% 1 13.09.2027 -
Peyton Miller Houston Dynamo Активный 101 / 132 40% 1 13.09.2027 -
Vitor Reis Manchester City Активный 142 / 149 40% 1 13.09.2027 -
Teo Rodríguez Pagano San Lorenzo Активный 119 / 117 40% 2 11.09.2027 -
Ignacio Fernández Boston River Активный 92 / 105 40% 1 11.09.2027 -
Ayden Heaven Blackpool Активный 146 / 139 40% 1 08.09.2027 -
Uche Jaguar Kwara United Активный 85 / 106 40% 1 08.09.2027 -
Craig Forsyth Derby County Отчёт готов 110 / 103 83% 1 26.07.2027 -
Wassim Bouziane AZ Активный 121 / 122 40% 4 05.07.2027 -
Lisandro Piñero Celta Активный 125 / 127 40% 1 05.07.2027 -
Josh King Charlton Athletic Активный 137 / 147 40% 3 29.06.2027 -
Leny Yoro Manchester United Активный 147 / 155 40% 1 29.06.2027 -
Alejandro Almaraz Eibar Активный 108 / 133 40% 1 29.06.2027 -
Josh Koroma Leyton Orient Отчёт готов 104 / 102 83% 1 21.06.2027 -
Kermit Ngcobo Free State Stars Активный 96 / 110 40% 3 17.06.2027 -
João Fonseca Benfica Активный 106 / 107 40% 1 17.06.2027 -
Tommaso Cecotti Carpi Активный 92 / 107 40% 1 17.06.2027 -
Luke Baartman Ajax Cape Town Активный 109 / 92 40% 2 30.05.2027 -
Yussif Saidu Zaragoza Активный 128 / 122 40% 1 30.05.2027 -
Joel McGregor Swindon Town Активный 98 / 90 40% 2 29.05.2027 -
Lebogang Mokotjo Ajax Cape Town Активный 87 / 83 40% 1 29.05.2027 -
Mfundo Vilakazi Bloemfontein Celtic Активный 109 / 127 40% 3 28.05.2027 -
Othmane Maamma Watford Активный 123 / 132 40% 1 28.05.2027 -
Lennon Miller AC Milan Активный 135 / 150 40% 2 25.05.2027 -
Eduardo Fernandes Benfica Активный 107 / 104 40% 1 25.05.2027 -
Harrison Armstrong Hull City Активный 125 / 130 40% 3 23.05.2027 -
Ronwen Vilakazi Ajax Cape Town Активный 86 / 107 40% 2 23.05.2027 -
Kamarni Ryan Harrogate Town Активный 100 / 88 40% 2 20.05.2027 -
Sean Fusire Sheffield Wednesday Активный 98 / 97 40% 1 20.05.2027 -
Oscar Schwartau Norwich City Активный 123 / 136 40% 2 16.05.2027 -
Caleb Yirenkyi Coventry City Активный 137 / 149 40% 1 15.05.2027 -
Lucas Bergvall Tottenham Активный 147 / 140 40% 1 14.05.2027 -
Lennart Karl VfL Wolfsburg Активный 140 / 143 40% 1 13.05.2027 -
Riley Owen Peterborough United Активный 104 / 110 40% 1 04.05.2027 -
Asanele Bonani Chippa United Активный 92 / 82 40% 1 04.05.2027 -
Milan van Ewijk Coventry City Активный 127 / 131 40% 1 19.01.2027 -
Alex Scott Bournemouth Активный 151 / 160 40% 1 19.01.2027 -
Victor Kristiansen Leicester City Активный 121 / 127 40% 1 19.01.2027 -
Mao Hosoya Anderlecht Переговоры 134 / 135 90% 1 18.01.2027 -
Daniel Kyerewaa Reading Активный 109 / 124 79% 1 18.01.2027 -
Konstantin Tyukavin KV Mechelen Активный 132 / 133 89% 1 01.01.2027 За
Stanislav Agkatsev CSKA Moscow Переговоры 132 / 133 66% 1 01.01.2027 -
Sampson Dweh Lokomotiv Moscow Активный 133 / 134 66% 1 01.01.2027 -
Gonzalo Fulham Активный 138 / 150 40% 3 31.12.2026 -
Tom Cannon Sheffield United Активный 133 / 140 40% 2 31.12.2026 -
Ilyas Ansah Hull City Активный 132 / 119 40% 2 31.12.2026 -
Tyrese Campbell Sheffield United Активный 131 / 132 40% 3 30.12.2026 -
Harry Leonard Peterborough United Активный 106 / 115 40% 1 29.12.2026 -
Žan Vipotnik Swansea City Активный 126 / 117 40% 2 28.12.2026 -
Marcus Forss Bristol Rovers Активный 110 / 110 40% 1 28.12.2026 -
Thamsanqa Dolly Free State Stars Активный 112 / 93 40% 1 28.12.2026 -
Patrick Addo Great Olympics Активный 101 / 101 40% 2 27.12.2026 -
Malik Mothersille Stockport County Активный 113 / 102 40% 1 27.12.2026 -
Wandile Duba Maritzburg United Активный 101 / 98 40% 1 27.12.2026 -
Toni Fruk Ipswich Town Активный 137 / 119 40% 2 26.12.2026 -
Yousef Salech Cardiff City Активный 121 / 137 40% 1 26.12.2026 -
Brayan León Mamelodi Sundowns Активный 121 / 102 40% 1 25.12.2026 -
Dango Ouattara Brentford Активный 149 / 142 40% 1 25.12.2026 -
Jeremiah Okine-Peters Salyut Активный 83 / 79 40% 3 22.12.2026 -
George Hirst Stoke City Активный 134 / 122 40% 1 21.12.2026 -
Evanilson Bournemouth Активный 154 / 139 40% 2 18.12.2026 -
Patrick Agyemang Derby County Активный 126 / 116 40% 1 18.12.2026 -
Rodrigo Muniz Fulham Активный 141 / 149 40% 1 16.12.2026 -
Ferdi Kadıoğlu Stoke City Активный 144 / 154 40% 1 16.12.2026 -
Juanlu Bournemouth Активный 141 / 163 40% 1 16.12.2026 -
Jerome Karelse Golden Arrows Активный 100 / 82 40% 2 14.12.2026 -
Wessam Abou Ali Columbus Crew Активный 128 / 141 40% 1 14.12.2026 -
Etiosa Ighodaro Kaizer Chiefs Активный 109 / 120 40% 1 13.12.2026 -
Diogo Dalot Manchester United Активный 152 / 151 40% 1 11.12.2026 -
Kristoffer Lund Birmingham Активный 122 / 137 40% 1 11.12.2026 -
Florentino Luís Ipswich Town Активный 135 / 136 40% 1 11.12.2026 -
Ethan Galbraith Swansea City Активный 134 / 124 40% 1 10.12.2026 -
Christoph Klarer Birmingham Активный 124 / 132 40% 1 10.12.2026 -
Jacob Greaves Ipswich Town Активный 132 / 147 40% 1 08.12.2026 -
Tim Iroegbunam Hull City Активный 142 / 132 40% 1 08.12.2026 -
Imrân Louza Watford Активный 130 / 130 40% 1 08.12.2026 -
Dayne St. Clair Inter Miami CF Активный 129 / 103 40% 1 01.08.2026 -
Mark Travers Everton Активный 127 / 144 40% 1 01.08.2026 -